Time;durP1;ratioP1;P1;durP2;ratioP2;P2;SDS_P1;SDS_P2;PMS_P1;PMS_P2;Temp;Humidity;BMP_temperature;BMP_pressure;BME280_temperature;BME280_humidity;BME280_pressure;Samples;Min_cycle;Max_cycle;Signal;HPM_P1;HPM_P2
2022/08/30 00:02:37;;;;;;;2.60;0.70;;;25.30;47.30;24.40;101761.00;;;;5090048;28;20504;-67
2022/08/30 00:05:23;;;;;;;2.03;0.70;;;25.30;47.30;24.40;101745.00;;;;5082894;27;20051;-67
2022/08/30 00:08:10;;;;;;;2.75;0.70;;;25.30;47.20;24.40;101750.00;;;;5105271;27;20057;-67
2022/08/30 00:10:59;;;;;;;1.17;0.68;;;25.30;47.20;24.40;101751.00;;;;5082345;27;20052;-67
2022/08/30 00:13:46;;;;;;;3.90;1.60;;;25.30;47.20;24.40;101754.00;;;;5101558;27;20056;-67
2022/08/30 00:16:32;;;;;;;1.63;0.90;;;25.20;47.20;24.40;101754.00;;;;5079031;27;20048;-67
2022/08/30 00:19:18;;;;;;;0.98;0.50;;;25.30;47.20;24.40;101760.00;;;;5098253;28;20627;-67
2022/08/30 00:22:05;;;;;;;0.95;0.75;;;25.30;47.20;24.40;101762.00;;;;5096360;28;20271;-67
2022/08/30 00:24:51;;;;;;;;;;;25.30;47.20;24.40;101753.00;;;;5086905;27;20053;-67
2022/08/30 00:27:37;;;;;;;1.60;0.60;;;25.30;47.10;24.40;101752.00;;;;5102735;27;19916;-67
2022/08/30 00:30:24;;;;;;;1.00;0.60;;;25.30;47.10;24.40;101744.00;;;;5092503;27;20057;-67
2022/08/30 00:33:10;;;;;;;1.73;0.57;;;25.30;47.20;24.40;101752.00;;;;5101305;27;20046;-67
2022/08/30 00:35:56;;;;;;;3.63;0.90;;;25.30;47.20;24.40;101749.00;;;;5100912;27;20044;-67
2022/08/30 00:38:42;;;;;;;0.65;0.45;;;25.30;47.20;24.40;101755.00;;;;5099430;27;20388;-67
2022/08/30 00:41:28;;;;;;;1.02;0.52;;;25.20;47.10;24.40;101748.00;;;;5103237;27;20043;-67
2022/08/30 00:44:14;;;;;;;0.50;0.50;;;25.20;47.10;24.40;101750.00;;;;5095078;27;20118;-67
2022/08/30 00:47:01;;;;;;;0.70;0.55;;;25.30;47.20;24.40;101745.00;;;;5101756;27;20042;-67
2022/08/30 00:49:49;;;;;;;1.25;0.68;;;25.20;47.20;24.40;101757.00;;;;5093066;27;20082;-67
2022/08/30 00:52:35;;;;;;;0.70;0.70;;;25.20;47.20;24.40;101758.00;;;;5070437;28;20562;-67
2022/08/30 00:55:21;;;;;;;1.73;0.80;;;25.20;47.20;24.40;101744.00;;;;5073313;28;20050;-67
2022/08/30 00:58:09;;;;;;;0.50;0.50;;;25.20;47.20;24.40;101745.00;;;;5074876;27;20059;-67
2022/08/30 01:01:15;;;;;;;1.25;0.52;;;25.30;47.30;24.40;101749.00;;;;5085902;27;20035;-67
2022/08/30 01:04:03;;;;;;;0.57;0.45;;;25.20;47.30;24.40;101743.00;;;;5075949;27;20078;-67
2022/08/30 01:06:49;;;;;;;0.60;0.60;;;25.20;47.20;24.40;101747.00;;;;5073036;28;20032;-67
2022/08/30 01:09:35;;;;;;;0.60;0.47;;;25.20;47.20;24.40;101747.00;;;;5088950;28;20141;-67
2022/08/30 01:12:22;;;;;;;4.72;0.90;;;25.30;47.20;24.40;101741.00;;;;5054069;28;20059;-67
2022/08/30 01:15:08;;;;;;;0.60;0.50;;;25.30;47.20;24.40;101743.00;;;;5090677;27;20196;-67
2022/08/30 01:17:55;;;;;;;0.77;0.50;;;25.20;47.10;24.40;101736.00;;;;5085524;27;20334;-67
2022/08/30 01:21:10;;;;;;;2.33;0.40;;;25.20;47.10;24.40;101739.00;;;;5075481;27;20108;-67
2022/08/30 01:23:57;;;;;;;0.45;0.45;;;25.20;47.20;24.40;101738.00;;;;5083503;28;20128;-67
2022/08/30 01:26:43;;;;;;;1.52;0.60;;;25.20;47.20;24.30;101738.00;;;;5070617;28;20038;-67
2022/08/30 01:29:29;;;;;;;0.85;0.40;;;25.20;47.20;24.30;101741.00;;;;5100180;27;20043;-67
2022/08/30 01:32:22;;;;;;;0.88;0.52;;;25.20;47.30;24.40;101742.00;;;;5088366;27;20043;-67
2022/08/30 01:35:13;;;;;;;0.50;0.50;;;25.20;47.20;24.30;101740.00;;;;5082851;27;20075;-67
2022/08/30 01:37:59;;;;;;;0.93;0.60;;;25.20;47.30;24.30;101745.00;;;;5087013;27;20054;-67
2022/08/30 01:40:45;;;;;;;1.33;0.60;;;25.20;47.20;24.30;101748.00;;;;5069355;28;20040;-67
2022/08/30 01:43:31;;;;;;;0.47;0.35;;;25.20;47.30;24.30;101750.00;;;;5105632;27;20044;-67
2022/08/30 01:46:18;;;;;;;0.65;0.40;;;25.20;47.30;24.30;101753.00;;;;5079683;28;20130;-67
2022/08/30 01:49:10;;;;;;;0.63;0.38;;;25.20;47.20;24.30;101751.00;;;;5100729;27;20505;-67
2022/08/30 01:51:56;;;;;;;0.82;0.60;;;25.20;47.10;24.30;101752.00;;;;5103012;27;20039;-67
2022/08/30 01:54:43;;;;;;;0.75;0.47;;;25.20;47.20;24.30;101761.00;;;;5086224;28;20393;-67
2022/08/30 01:57:29;;;;;;;1.30;0.52;;;25.10;47.10;24.30;101767.00;;;;5089852;28;20040;-67
2022/08/30 02:00:16;;;;;;;0.40;0.40;;;25.20;47.10;24.30;101766.00;;;;5084253;27;20045;-67
2022/08/30 02:03:02;;;;;;;0.53;0.50;;;25.10;47.10;24.30;101760.00;;;;5105896;27;20123;-67
2022/08/30 02:05:48;;;;;;;1.73;0.47;;;25.20;47.20;24.30;101761.00;;;;5107872;27;20036;-67
2022/08/30 02:08:34;;;;;;;0.50;0.45;;;25.10;47.10;24.30;101765.00;;;;5091395;27;20124;-67
2022/08/30 02:11:20;;;;;;;0.45;0.40;;;25.10;47.10;24.30;101767.00;;;;5090396;27;20035;-67
2022/08/30 02:14:06;;;;;;;0.50;0.50;;;25.20;47.30;24.30;101765.00;;;;5098561;27;20043;-67
2022/08/30 02:16:52;;;;;;;1.52;0.70;;;25.10;47.30;24.30;101769.00;;;;5107053;27;20311;-67
2022/08/30 02:19:39;;;;;;;0.60;0.40;;;25.10;47.20;24.30;101765.00;;;;5103494;27;20055;-67
2022/08/30 02:22:25;;;;;;;1.50;0.38;;;25.10;47.20;24.30;101769.00;;;;5097252;28;20036;-67
2022/08/30 02:25:11;;;;;;;0.95;0.40;;;25.20;47.30;24.30;101767.00;;;;5114288;27;20091;-67
2022/08/30 02:27:57;;;;;;;0.30;0.30;;;25.10;47.30;24.30;101766.00;;;;5098611;28;20067;-67
2022/08/30 02:30:43;;;;;;;0.52;0.40;;;25.10;47.30;24.30;101767.00;;;;5104838;28;20040;-67
2022/08/30 02:33:30;;;;;;;0.47;0.40;;;25.10;47.30;24.30;101769.00;;;;5101100;28;20043;-67
2022/08/30 02:36:17;;;;;;;0.52;0.45;;;25.20;47.40;24.30;101767.00;;;;5098136;28;20042;-67
2022/08/30 02:39:03;;;;;;;0.30;0.30;;;25.10;47.40;24.30;101766.00;;;;5088833;28;20071;-67
2022/08/30 02:41:49;;;;;;;0.40;0.40;;;25.10;47.40;24.20;101768.00;;;;5095242;28;20044;-67
2022/08/30 02:44:35;;;;;;;0.77;0.43;;;25.00;47.30;24.20;101774.00;;;;5101871;28;20056;-67
2022/08/30 02:47:21;;;;;;;0.63;0.50;;;25.00;47.40;24.20;101768.00;;;;5090579;28;20062;-67
2022/08/30 02:50:08;;;;;;;0.43;0.40;;;25.00;47.50;24.20;101779.00;;;;5103517;28;20047;-67
2022/08/30 02:52:54;;;;;;;0.98;0.50;;;25.00;47.50;24.20;101772.00;;;;5084614;28;20165;-67
2022/08/30 02:55:40;;;;;;;1.15;0.57;;;25.00;47.50;24.20;101771.00;;;;5096551;28;20040;-67
2022/08/30 02:58:27;;;;;;;0.52;0.38;;;25.00;47.40;24.20;101770.00;;;;5097624;28;20408;-67
2022/08/30 03:01:13;;;;;;;0.40;0.40;;;25.00;47.40;24.20;101768.00;;;;5080941;27;20085;-67
2022/08/30 03:03:59;;;;;;;0.57;0.40;;;25.10;47.50;24.20;101764.00;;;;5106376;27;20476;-67
2022/08/30 03:06:45;;;;;;;0.38;0.30;;;25.00;47.40;24.20;101754.00;;;;5096911;27;20036;-67
2022/08/30 03:09:32;;;;;;;0.88;0.38;;;25.00;48.10;24.20;101762.00;;;;5083472;27;20397;-67
2022/08/30 03:12:18;;;;;;;0.90;0.30;;;25.00;47.40;24.20;101766.00;;;;5106917;27;20039;-67
2022/08/30 03:15:05;;;;;;;0.35;0.35;;;25.00;47.50;24.20;101761.00;;;;5091644;28;20047;-67
2022/08/30 03:17:52;;;;;;;0.43;0.28;;;25.00;47.50;24.20;101764.00;;;;5097414;27;20048;-67
2022/08/30 03:20:40;;;;;;;1.58;0.50;;;25.00;47.50;24.10;101763.00;;;;5054823;28;20509;-67
2022/08/30 03:23:26;;;;;;;1.02;0.47;;;24.90;47.40;24.10;101764.00;;;;5086538;28;20047;-67
2022/08/30 03:26:13;;;;;;;0.30;0.30;;;25.00;47.40;24.10;101762.00;;;;5105413;27;20481;-67
2022/08/30 03:28:59;;;;;;;0.65;0.47;;;24.90;47.30;24.10;101758.00;;;;5088870;27;20036;-67
2022/08/30 03:31:45;;;;;;;1.48;0.50;;;24.90;47.40;24.10;101762.00;;;;5104159;27;20093;-67
2022/08/30 03:34:31;;;;;;;2.53;0.30;;;24.90;47.30;24.10;101765.00;;;;5083596;27;20510;-67
2022/08/30 03:37:18;;;;;;;0.60;0.30;;;24.80;47.20;24.10;101772.00;;;;5088788;28;20089;-67
2022/08/30 03:40:06;;;;;;;0.98;0.30;;;24.90;47.30;24.10;101766.00;;;;5094863;27;20039;-67
2022/08/30 03:42:52;;;;;;;0.40;0.40;;;24.80;47.20;24.10;101763.00;;;;5091395;28;20098;-67
2022/08/30 03:45:38;;;;;;;0.38;0.30;;;24.90;47.20;24.10;101771.00;;;;5111401;27;20047;-67
2022/08/30 03:48:24;;;;;;;0.88;0.40;;;24.90;47.20;24.10;101769.00;;;;5102282;27;20044;-67
2022/08/30 03:51:11;;;;;;;0.77;0.35;;;24.80;47.20;24.10;101759.00;;;;5089890;28;20456;-67
2022/08/30 03:53:57;;;;;;;1.00;0.40;;;24.80;47.10;24.00;101764.00;;;;5090808;27;20380;-67
2022/08/30 03:56:43;;;;;;;0.28;0.22;;;24.80;47.20;24.00;101756.00;;;;5096756;27;20409;-67
2022/08/30 03:59:29;;;;;;;0.70;0.40;;;24.80;47.30;24.00;101763.00;;;;5103795;27;20047;-67
2022/08/30 04:02:15;;;;;;;0.80;0.40;;;24.70;47.30;24.00;101767.00;;;;5094824;27;20051;-67
2022/08/30 04:05:01;;;;;;;0.52;0.40;;;24.80;47.40;24.00;101761.00;;;;5112339;27;20046;-67
2022/08/30 04:07:47;;;;;;;0.40;0.40;;;24.80;47.40;24.00;101762.00;;;;5099203;27;20054;-67
2022/08/30 04:10:34;;;;;;;1.27;0.40;;;24.70;47.40;24.00;101755.00;;;;5099856;27;20048;-67
2022/08/30 04:13:20;;;;;;;0.60;0.50;;;24.80;47.40;24.00;101758.00;;;;5095404;27;20042;-67
2022/08/30 04:16:06;;;;;;;0.95;0.50;;;24.80;47.50;24.00;101759.00;;;;5092331;27;20111;-67
2022/08/30 04:18:52;;;;;;;1.25;0.40;;;24.80;47.50;24.00;101759.00;;;;5101010;27;20071;-67
2022/08/30 04:21:38;;;;;;;0.43;0.38;;;24.70;48.20;24.00;101754.00;;;;5099984;27;20051;-67
2022/08/30 04:24:24;;;;;;;0.50;0.40;;;24.80;47.50;24.00;101759.00;;;;5100663;27;20248;-67
2022/08/30 04:27:10;;;;;;;0.52;0.30;;;24.70;47.50;24.00;101771.00;;;;5104802;27;20052;-67
2022/08/30 04:29:57;;;;;;;0.30;0.30;;;24.80;47.50;24.00;101772.00;;;;5087291;27;20135;-67
2022/08/30 04:32:43;;;;;;;0.43;0.40;;;24.70;47.50;24.00;101767.00;;;;5077772;28;20550;-67
2022/08/30 04:35:29;;;;;;;1.67;0.40;;;24.60;47.50;23.90;101767.00;;;;5080858;28;20047;-67
2022/08/30 04:38:16;;;;;;;0.52;0.45;;;24.70;47.50;23.90;101773.00;;;;5100464;27;20058;-67
2022/08/30 04:41:07;;;;;;;5.28;0.47;;;24.80;47.50;24.00;101765.00;;;;5097774;27;20044;-67
2022/08/30 04:43:53;;;;;;;1.95;0.43;;;24.80;47.50;23.90;101776.00;;;;5100882;27;20379;-67
2022/08/30 04:46:39;;;;;;;1.02;0.43;;;24.70;47.40;23.90;101773.00;;;;5098206;27;20036;-67
2022/08/30 04:49:25;;;;;;;0.75;0.50;;;24.70;47.40;23.90;101776.00;;;;5094209;28;20486;-67
2022/08/30 04:52:11;;;;;;;1.08;0.57;;;24.70;47.40;23.90;101773.00;;;;5088115;28;20089;-67
2022/08/30 04:54:57;;;;;;;0.52;0.50;;;24.70;47.40;23.90;101772.00;;;;5101228;27;20048;-67
2022/08/30 04:57:43;;;;;;;0.90;0.52;;;24.70;47.40;23.90;101771.00;;;;5095557;27;20113;-67
2022/08/30 05:00:30;;;;;;;1.50;0.40;;;24.70;47.40;23.90;101779.00;;;;5108915;27;20039;-67
2022/08/30 05:03:35;;;;;;;1.35;0.50;;;24.70;47.40;23.90;101786.00;;;;5096479;28;20040;-67
2022/08/30 05:06:22;;;;;;;0.30;0.30;;;24.70;47.40;23.90;101792.00;;;;5102943;27;20639;-67
2022/08/30 05:09:08;;;;;;;1.00;0.50;;;24.70;47.40;23.90;101792.00;;;;5101558;28;20040;-67
2022/08/30 05:11:54;;;;;;;0.93;0.40;;;24.70;47.30;23.90;101801.00;;;;5095399;27;20052;-67
2022/08/30 05:14:40;;;;;;;0.43;0.40;;;24.70;47.40;23.90;101794.00;;;;5089115;27;20093;-67
2022/08/30 05:17:27;;;;;;;1.10;0.70;;;24.70;47.30;23.90;101803.00;;;;5087119;27;20044;-67
2022/08/30 05:20:13;;;;;;;1.30;0.70;;;24.70;47.30;23.90;101802.00;;;;5097161;27;20035;-67
2022/08/30 05:22:59;;;;;;;2.38;0.50;;;24.70;47.30;23.90;101802.00;;;;5099955;27;20497;-67
2022/08/30 05:25:45;;;;;;;0.50;0.35;;;24.70;47.40;23.90;101803.00;;;;5079093;28;20036;-67
2022/08/30 05:28:31;;;;;;;1.10;0.40;;;24.70;47.30;23.90;101808.00;;;;5096921;28;20476;-67
2022/08/30 05:31:30;;;;;;;0.80;0.50;;;24.70;47.30;23.90;101803.00;;;;5083006;28;20037;-67
2022/08/30 05:34:16;;;;;;;1.23;0.60;;;24.70;47.30;23.90;101802.00;;;;5090896;28;20075;-67
2022/08/30 05:37:03;;;;;;;0.40;0.40;;;24.70;47.30;23.90;101803.00;;;;5092893;28;20427;-67
2022/08/30 05:39:49;;;;;;;0.40;0.30;;;24.80;47.40;23.90;101804.00;;;;5093851;28;20039;-67
2022/08/30 05:42:35;;;;;;;0.65;0.30;;;24.60;47.30;23.90;101805.00;;;;5103036;27;20044;-67
2022/08/30 05:45:21;;;;;;;1.02;0.40;;;24.70;47.30;23.90;101804.00;;;;5080624;27;20201;-67
2022/08/30 05:48:07;;;;;;;1.20;0.40;;;24.70;47.30;23.90;101813.00;;;;5100461;27;20040;-67
2022/08/30 05:51:08;;;;;;;1.05;0.43;;;24.70;47.40;23.90;101813.00;;;;5095493;27;20028;-67
2022/08/30 05:53:55;;;;;;;0.80;0.40;;;24.70;47.50;23.90;101814.00;;;;5102306;27;20120;-67
2022/08/30 05:56:44;;;;;;;0.60;0.40;;;24.70;47.40;23.90;101816.00;;;;5092612;28;20040;-67
2022/08/30 05:59:30;;;;;;;0.70;0.68;;;24.60;47.40;23.90;101816.00;;;;5094566;27;20401;-67
2022/08/30 06:02:16;;;;;;;1.48;0.60;;;24.70;47.40;23.90;101825.00;;;;5095259;27;20134;-67
2022/08/30 06:05:03;;;;;;;1.45;0.55;;;24.80;47.50;23.90;101825.00;;;;5097357;27;20038;-67
2022/08/30 06:07:49;;;;;;;0.52;0.35;;;24.70;47.40;23.90;101824.00;;;;5079800;28;20063;-67
2022/08/30 06:10:36;;;;;;;1.20;0.50;;;24.70;47.50;23.90;101816.00;;;;5098072;27;20512;-67
2022/08/30 06:13:22;;;;;;;1.80;0.73;;;24.70;47.40;23.90;101817.00;;;;5093521;27;20041;-67
2022/08/30 06:16:11;;;;;;;1.77;0.50;;;24.70;47.40;23.90;101815.00;;;;5110560;27;20309;-67
2022/08/30 06:18:57;;;;;;;0.90;0.50;;;24.70;47.40;23.90;101817.00;;;;5093130;27;20071;-67
2022/08/30 06:21:46;;;;;;;0.95;0.55;;;24.70;47.40;23.90;101816.00;;;;5072679;28;20050;-67
2022/08/30 06:24:35;;;;;;;0.98;0.50;;;24.70;47.30;23.90;101811.00;;;;5087437;27;20035;-67
2022/08/30 06:27:21;;;;;;;0.80;0.35;;;24.70;47.40;23.90;101820.00;;;;5096699;28;20140;-67
2022/08/30 06:30:09;;;;;;;1.52;0.60;;;24.70;47.40;23.90;101821.00;;;;5106037;28;20373;-67
2022/08/30 06:32:55;;;;;;;1.33;0.40;;;24.70;47.30;23.90;101825.00;;;;5072851;28;20036;-67
2022/08/30 06:35:41;;;;;;;1.33;0.50;;;24.70;47.30;23.90;101835.00;;;;5104792;28;20055;-67
2022/08/30 06:38:27;;;;;;;0.88;0.40;;;24.70;47.30;23.90;101826.00;;;;5086409;28;20047;-67
2022/08/30 06:41:30;;;;;;;3.08;0.73;;;24.80;47.40;23.90;101825.00;;;;5100724;28;20489;-67
2022/08/30 06:44:16;;;;;;;0.70;0.50;;;24.80;47.40;23.90;101826.00;;;;5106180;28;20086;-67
2022/08/30 06:47:02;;;;;;;1.25;0.60;;;24.80;47.40;23.90;101825.00;;;;5101121;28;20040;-67
2022/08/30 06:49:48;;;;;;;1.25;0.40;;;24.80;47.40;23.90;101838.00;;;;5074813;28;20044;-67
2022/08/30 06:52:34;;;;;;;0.95;0.50;;;24.80;47.40;23.90;101823.00;;;;5067892;28;20074;-67
2022/08/30 06:55:20;;;;;;;0.40;0.40;;;24.80;47.40;23.90;101823.00;;;;5099797;28;20126;-67
2022/08/30 06:58:07;;;;;;;1.27;0.55;;;24.80;47.40;23.90;101826.00;;;;5098672;28;20091;-67
2022/08/30 07:00:53;;;;;;;1.73;0.50;;;24.80;47.40;23.90;101829.00;;;;5095318;28;20051;-67
2022/08/30 07:03:39;;;;;;;1.63;0.50;;;24.80;47.40;23.90;101835.00;;;;5107456;28;20383;-67
2022/08/30 07:06:25;;;;;;;1.08;0.47;;;24.80;47.40;23.90;101828.00;;;;5083196;28;20044;-67
2022/08/30 07:09:11;;;;;;;1.38;0.45;;;24.80;47.50;23.90;101834.00;;;;5099102;28;20050;-67
2022/08/30 07:12:01;;;;;;;2.05;0.40;;;24.80;47.40;23.90;101842.00;;;;5096640;28;20040;-67
2022/08/30 07:14:48;;;;;;;1.08;0.50;;;24.80;47.40;23.90;101836.00;;;;5101422;28;20458;-67
2022/08/30 07:20:38;;;;;;;2.70;0.60;;;24.90;47.50;23.90;101844.00;;;;5098948;28;20043;-67
2022/08/30 07:23:24;;;;;;;0.60;0.50;;;24.80;47.50;23.90;101847.00;;;;5097787;28;20051;-67
2022/08/30 07:26:12;;;;;;;0.88;0.50;;;24.80;47.50;23.90;101842.00;;;;5106069;28;20040;-67
2022/08/30 07:28:58;;;;;;;0.57;0.50;;;24.80;47.50;23.90;101847.00;;;;5101062;28;20032;-67
2022/08/30 07:31:45;;;;;;;0.90;0.52;;;24.80;47.50;23.90;101848.00;;;;5101172;28;20501;-67
2022/08/30 07:34:31;;;;;;;2.92;0.73;;;24.80;47.50;23.90;101842.00;;;;5084083;28;20047;-67
2022/08/30 07:37:17;;;;;;;0.80;0.40;;;24.80;47.60;23.90;101849.00;;;;5094331;28;20046;-67
2022/08/30 07:40:04;;;;;;;1.63;0.60;;;24.90;47.60;23.90;101843.00;;;;5111390;28;20387;-67
2022/08/30 07:42:50;;;;;;;0.73;0.52;;;24.80;47.50;23.90;101854.00;;;;5083015;28;20040;-67
2022/08/30 07:45:37;;;;;;;0.82;0.50;;;24.80;47.50;23.90;101852.00;;;;5094978;27;20036;-67
2022/08/30 07:48:23;;;;;;;1.13;0.38;;;24.90;47.60;23.90;101858.00;;;;5081858;27;20401;-67
2022/08/30 07:51:15;;;;;;;1.83;0.70;;;24.80;47.50;23.90;101851.00;;;;5109563;27;20476;-67
2022/08/30 07:54:01;;;;;;;0.70;0.50;;;24.90;47.60;24.00;101861.00;;;;5068071;27;20038;-67
2022/08/30 07:56:48;;;;;;;0.88;0.50;;;24.80;47.50;24.00;101849.00;;;;5101342;27;20472;-67
2022/08/30 07:59:34;;;;;;;1.33;0.55;;;24.80;47.50;23.90;101857.00;;;;5104707;27;20035;-67
2022/08/30 08:02:20;;;;;;;1.95;0.60;;;24.80;48.20;24.00;101848.00;;;;5096850;27;20062;-67
2022/08/30 08:05:07;;;;;;;2.10;0.50;;;24.80;47.50;23.90;101849.00;;;;5114584;27;20340;-67
2022/08/30 08:07:53;;;;;;;2.70;0.70;;;24.80;47.50;24.00;101855.00;;;;5091575;28;20036;-67
2022/08/30 08:10:39;;;;;;;1.00;0.90;;;24.80;47.40;24.00;101853.00;;;;5099991;27;20496;-67
2022/08/30 08:13:25;;;;;;;2.75;0.40;;;24.90;47.50;24.00;101857.00;;;;5104604;27;20057;-67
2022/08/30 08:16:11;;;;;;;1.77;0.65;;;24.90;47.50;24.00;101861.00;;;;5100536;27;20390;-67
2022/08/30 08:18:57;;;;;;;0.77;0.60;;;24.90;47.50;24.00;101848.00;;;;5102469;27;20098;-67
2022/08/30 08:21:44;;;;;;;0.80;0.47;;;24.90;47.40;24.00;101853.00;;;;5095106;27;20051;-67
2022/08/30 08:24:30;;;;;;;0.57;0.43;;;24.90;47.30;24.00;101861.00;;;;5088418;28;20047;-67
2022/08/30 08:27:16;;;;;;;0.30;0.30;;;24.90;47.40;24.00;101852.00;;;;5102352;27;20040;-67
2022/08/30 08:30:03;;;;;;;1.50;0.63;;;24.80;47.30;24.00;101854.00;;;;5101706;27;20032;-67
2022/08/30 08:32:49;;;;;;;1.77;0.65;;;24.90;47.30;24.00;101849.00;;;;5098838;28;20101;-67
2022/08/30 08:35:35;;;;;;;0.70;0.38;;;24.90;47.30;24.00;101847.00;;;;5097807;27;20040;-67
2022/08/30 08:38:21;;;;;;;0.85;0.52;;;24.90;47.20;24.00;101847.00;;;;5096960;28;20043;-67
2022/08/30 08:41:32;;;;;;;0.30;0.30;;;24.90;47.20;24.00;101844.00;;;;5098804;27;20097;-67
2022/08/30 08:44:35;;;;;;;1.48;0.50;;;24.90;47.20;24.00;101844.00;;;;5098416;27;20037;-67
2022/08/30 08:47:38;;;;;;;1.92;0.38;;;24.90;47.10;24.00;101843.00;;;;5082799;28;20042;-67
2022/08/30 08:50:24;;;;;;;1.48;0.73;;;24.90;47.10;24.00;101845.00;;;;5083573;27;20479;-67
2022/08/30 08:53:34;;;;;;;0.90;0.60;;;24.90;47.00;24.00;101849.00;;;;5091829;28;20052;-67
2022/08/30 08:56:23;;;;;;;1.27;0.40;;;24.90;46.90;24.00;101842.00;;;;5088392;28;20484;-67
2022/08/30 08:59:10;;;;;;;0.50;0.50;;;24.80;46.90;24.00;101844.00;;;;5105642;27;20043;-67
2022/08/30 09:02:01;;;;;;;0.52;0.40;;;24.90;47.00;24.00;101841.00;;;;5087191;28;20039;-67
2022/08/30 09:04:47;;;;;;;0.68;0.30;;;24.80;46.80;24.00;101850.00;;;;5064366;28;20478;-67
2022/08/30 09:07:40;;;;;;;0.55;0.32;;;24.90;46.80;24.00;101838.00;;;;5079049;28;20089;-67
2022/08/30 09:10:28;;;;;;;0.80;0.43;;;24.90;46.80;24.00;101850.00;;;;5071234;27;20497;-67
2022/08/30 09:13:14;;;;;;;0.65;0.45;;;24.90;46.70;24.00;101845.00;;;;5071023;28;20044;-67
2022/08/30 09:16:00;;;;;;;1.00;0.35;;;24.90;46.60;24.00;101848.00;;;;5091325;28;20044;-67
2022/08/30 09:18:48;;;;;;;1.40;0.40;;;24.90;46.70;24.00;101859.00;;;;5074387;28;20494;-67
2022/08/30 09:21:34;;;;;;;1.02;0.43;;;24.90;46.60;24.00;101846.00;;;;5091794;27;20043;-67
2022/08/30 09:24:20;;;;;;;0.60;0.40;;;24.90;46.50;24.00;101843.00;;;;5093374;27;20645;-67
2022/08/30 09:27:29;;;;;;;1.58;0.70;;;24.90;46.50;24.00;101837.00;;;;5097205;27;20043;-67
2022/08/30 09:30:27;;;;;;;0.82;0.52;;;24.80;46.40;24.00;101832.00;;;;5101289;27;20381;-67
2022/08/30 09:33:19;;;;;;;4.65;0.80;;;24.90;46.40;24.00;101838.00;;;;5104159;27;20038;-67
2022/08/30 09:36:42;;;;;;;10.40;0.95;;;25.00;46.30;24.00;101837.00;;;;5088631;27;20035;-67
2022/08/30 09:39:36;;;;;;;1.80;0.65;;;24.90;46.30;24.00;101839.00;;;;5091005;28;20110;-67
2022/08/30 09:42:27;;;;;;;1.75;0.80;;;24.90;46.10;24.00;101829.00;;;;5080038;28;20302;-67
2022/08/30 09:45:19;;;;;;;0.90;0.40;;;25.00;46.10;24.00;101832.00;;;;5097964;27;20043;-67
2022/08/30 09:48:30;;;;;;;0.47;0.40;;;24.90;46.00;24.00;101822.00;;;;5087764;27;20620;-67
2022/08/30 09:51:39;;;;;;;1.10;0.50;;;24.90;46.00;24.00;101823.00;;;;5096812;27;20039;-67
2022/08/30 09:54:33;;;;;;;0.70;0.50;;;24.90;45.90;24.00;101826.00;;;;5074668;27;20043;-67
2022/08/30 09:58:08;;;;;;;0.52;0.50;;;24.90;45.90;24.00;101811.00;;;;5087934;27;20088;-67
2022/08/30 10:01:15;;;;;;;1.45;0.70;;;24.90;45.90;24.00;101823.00;;;;5082671;28;20071;-67
2022/08/30 10:04:21;;;;;;;1.17;0.45;;;24.90;45.90;24.00;101819.00;;;;5087174;28;20044;-67
2022/08/30 10:07:53;;;;;;;0.90;0.50;;;24.90;45.80;24.00;101825.00;;;;5095790;28;20295;-67
2022/08/30 10:11:15;;;;;;;0.70;0.38;;;24.90;45.80;24.00;101822.00;;;;5081440;28;20067;-67
2022/08/30 10:14:22;;;;;;;1.20;0.43;;;24.90;45.80;24.00;101823.00;;;;5088559;28;20465;-67
2022/08/30 10:17:47;;;;;;;1.35;0.80;;;24.90;45.70;24.00;101808.00;;;;5099261;28;20254;-67
2022/08/30 10:20:45;;;;;;;1.70;0.52;;;24.90;45.70;24.00;101819.00;;;;5081284;28;20044;-67
2022/08/30 10:23:35;;;;;;;1.30;0.50;;;25.00;45.70;24.00;101813.00;;;;5069580;27;20036;-67
2022/08/30 10:26:58;;;;;;;0.80;0.50;;;25.00;45.70;24.00;101809.00;;;;5072323;27;20035;-67
2022/08/30 10:29:52;;;;;;;2.67;0.70;;;25.00;45.60;24.00;101820.00;;;;5076051;28;20161;-67
2022/08/30 10:32:51;;;;;;;0.65;0.57;;;25.00;45.50;24.00;101807.00;;;;5076970;28;20408;-67
2022/08/30 10:35:43;;;;;;;1.17;0.70;;;25.00;45.40;24.10;101810.00;;;;5086825;28;20059;-67
2022/08/30 10:38:34;;;;;;;1.45;0.60;;;25.00;45.50;24.10;101805.00;;;;5089674;28;20556;-67
2022/08/30 10:41:30;;;;;;;0.82;0.40;;;25.00;45.30;24.10;101801.00;;;;5076077;28;20082;-67
2022/08/30 10:44:26;;;;;;;2.33;0.50;;;25.00;45.30;24.10;101800.00;;;;5097771;28;20042;-67
2022/08/30 10:47:39;;;;;;;0.70;0.60;;;25.00;45.40;24.10;101794.00;;;;5049929;28;20040;-67
2022/08/30 10:50:30;;;;;;;1.73;0.68;;;25.00;45.40;24.10;101790.00;;;;5087854;28;20035;-67
2022/08/30 10:53:27;;;;;;;0.80;0.70;;;25.00;45.30;24.10;101797.00;;;;5080740;28;20031;-67
2022/08/30 10:56:20;;;;;;;1.42;0.70;;;25.00;45.40;24.10;101799.00;;;;5073281;28;20042;-67
2022/08/30 10:59:06;;;;;;;0.68;0.40;;;25.00;45.40;24.10;101787.00;;;;5083098;28;20409;-67
2022/08/30 11:02:14;;;;;;;0.50;0.47;;;25.20;45.50;24.10;101786.00;;;;5071242;28;20374;-67
2022/08/30 11:05:46;;;;;;;1.20;0.60;;;25.00;45.30;24.10;101781.00;;;;5091907;28;20040;-67
2022/08/30 11:08:58;;;;;;;1.00;0.45;;;25.10;45.40;24.10;101793.00;;;;5087268;28;20036;-67
2022/08/30 11:12:01;;;;;;;1.48;0.70;;;25.10;45.50;24.10;101787.00;;;;5085457;28;20132;-67
2022/08/30 11:14:47;;;;;;;0.85;0.50;;;25.10;45.50;24.10;101781.00;;;;5078226;28;20044;-67
2022/08/30 11:18:02;;;;;;;0.93;0.43;;;25.10;45.40;24.10;101786.00;;;;5079766;28;20397;-67
2022/08/30 11:20:55;;;;;;;1.25;0.60;;;25.10;45.50;24.10;101777.00;;;;5066058;28;20047;-67
2022/08/30 11:23:41;;;;;;;1.33;0.50;;;25.10;45.50;24.10;101782.00;;;;5077604;27;20496;-67
2022/08/30 11:26:48;;;;;;;0.95;0.40;;;25.10;45.40;24.10;101782.00;;;;5076681;28;20072;-67
2022/08/30 11:29:42;;;;;;;1.13;0.47;;;25.10;45.40;24.10;101785.00;;;;5096786;27;20083;-67
2022/08/30 11:33:01;;;;;;;2.28;0.60;;;25.10;45.40;24.10;101785.00;;;;5069987;28;20431;-67
2022/08/30 11:35:48;;;;;;;;;;;25.10;45.40;24.10;101788.00;;;;5091838;28;20092;-67
2022/08/30 11:38:34;;;;;;;2.60;0.50;;;25.20;45.60;24.10;101789.00;;;;5099660;28;20060;-67
2022/08/30 11:41:45;;;;;;;1.77;0.45;;;25.20;45.20;24.20;101775.00;;;;5110104;27;20047;-67
2022/08/30 11:44:32;;;;;;;1.20;0.60;;;25.20;45.10;24.20;101787.00;;;;5082437;28;20488;-67
2022/08/30 11:47:45;;;;;;;1.42;0.65;;;25.20;45.10;24.20;101780.00;;;;5075609;28;20028;-67
2022/08/30 11:51:09;;;;;;;0.73;0.60;;;25.20;45.10;24.20;101777.00;;;;5099865;27;20081;-67
2022/08/30 11:54:23;;;;;;;2.17;0.60;;;25.20;45.00;24.20;101772.00;;;;5076222;28;20039;-67
2022/08/30 11:57:47;;;;;;;0.55;0.52;;;25.20;44.90;24.20;101771.00;;;;5094486;27;20036;-67
2022/08/30 12:00:39;;;;;;;1.05;0.60;;;25.20;45.00;24.20;101768.00;;;;5063602;28;20105;-67
2022/08/30 12:03:31;;;;;;;1.15;0.55;;;25.20;44.80;24.20;101773.00;;;;5069979;27;20041;-67
2022/08/30 12:06:40;;;;;;;1.58;0.73;;;25.30;44.90;24.20;101774.00;;;;5085276;27;20039;-67
2022/08/30 12:09:27;;;;;;;1.38;0.65;;;25.20;44.90;24.20;101770.00;;;;5095791;27;20127;-67
2022/08/30 12:12:45;;;;;;;1.70;0.68;;;25.30;45.00;24.20;101770.00;;;;5100376;27;20035;-67
2022/08/30 12:16:00;;;;;;;1.83;0.80;;;25.30;44.90;24.20;101764.00;;;;5104441;27;20409;-67
2022/08/30 12:18:59;;;;;;;0.85;0.50;;;25.30;44.80;24.20;101766.00;;;;5083423;28;20035;-67
2022/08/30 12:21:57;;;;;;;1.63;0.60;;;25.30;44.80;24.20;101766.00;;;;5071839;28;20552;-67
2022/08/30 12:24:46;;;;;;;2.13;0.65;;;25.30;44.70;24.20;101761.00;;;;5064448;28;20092;-67
2022/08/30 12:27:32;;;;;;;1.08;0.70;;;25.30;44.80;24.30;101762.00;;;;5088248;27;20099;-67
2022/08/30 12:30:25;;;;;;;3.05;0.68;;;25.30;44.80;24.30;101761.00;;;;5088309;27;20480;-67
2022/08/30 12:33:27;;;;;;;1.33;0.60;;;25.30;44.70;24.30;101765.00;;;;5088330;27;20042;-67
2022/08/30 12:36:39;;;;;;;2.20;1.10;;;25.30;44.70;24.30;101762.00;;;;5088489;27;20038;-67